createdAt,value
2019-02-16T00:00:38.735Z,72.81
2019-02-16T00:01:38.653Z,72.14
2019-02-16T00:02:38.615Z,72.14
2019-02-16T00:03:38.581Z,72.24
2019-02-16T00:04:38.525Z,72.24
2019-02-16T00:05:38.512Z,72.42
2019-02-16T00:06:38.468Z,72.71
2019-02-16T00:07:38.392Z,72.33
2019-02-16T00:08:38.348Z,71.32
2019-02-16T00:09:38.308Z,71.89
2019-02-16T00:10:38.341Z,71.70
2019-02-16T00:11:38.243Z,71.98
2019-02-16T00:12:38.184Z,71.89
2019-02-16T00:13:46.889Z,72.17
2019-02-16T00:14:38.107Z,72.65
2019-02-16T00:15:38.051Z,72.33
2019-02-16T00:16:38.037Z,72.42
2019-02-16T00:17:37.957Z,72.24
2019-02-16T00:18:37.918Z,72.14
2019-02-16T00:19:37.885Z,72.42
2019-02-16T00:20:37.847Z,72.14
2019-02-16T00:21:37.800Z,72.05
2019-02-16T00:22:37.794Z,72.33
2019-02-16T00:23:37.726Z,73.10
2019-02-16T00:24:37.663Z,73.19
2019-02-16T00:25:37.624Z,73.66
2019-02-16T00:26:37.643Z,73.38
2019-02-16T00:27:37.529Z,74.14
2019-02-16T00:28:37.531Z,73.76
2019-02-16T00:29:37.454Z,73.28
2019-02-16T00:30:37.409Z,74.14
2019-02-16T00:31:37.391Z,73.66
2019-02-16T00:32:37.354Z,73.76
2019-02-16T00:33:37.282Z,74.52
2019-02-16T00:34:37.248Z,73.85
2019-02-16T00:35:37.207Z,74.14
2019-02-16T00:36:37.145Z,73.66
2019-02-16T00:37:37.142Z,73.76
2019-02-16T00:38:37.297Z,74.33
2019-02-16T00:39:37.027Z,73.76
2019-02-16T00:40:36.993Z,74.77
2019-02-16T00:41:36.948Z,74.39
2019-02-16T00:42:36.895Z,74.87
2019-02-16T00:43:36.895Z,74.77
2019-02-16T00:44:36.808Z,74.87
2019-02-16T00:45:36.762Z,75.24
2019-02-16T00:46:36.721Z,75.24
2019-02-16T00:47:36.682Z,74.87
2019-02-16T00:48:36.655Z,75.24
2019-02-16T00:49:36.604Z,75.34
2019-02-16T00:50:36.550Z,75.53
2019-02-16T00:51:36.515Z,75.24
2019-02-16T00:52:36.466Z,75.24
2019-02-16T00:53:36.452Z,75.15
2019-02-16T00:54:36.413Z,75.43
2019-02-16T00:55:36.356Z,75.34
2019-02-16T00:56:36.321Z,75.72
2019-02-16T00:57:36.280Z,75.15
2019-02-16T00:58:36.232Z,74.77
2019-02-16T00:59:36.197Z,74.87
2019-02-16T01:00:36.130Z,75.24
2019-02-16T01:01:36.078Z,75.24
2019-02-16T01:02:36.036Z,75.72
2019-02-16T01:03:36.033Z,76.39
2019-02-16T01:04:35.979Z,76.10
2019-02-16T01:05:35.915Z,76.54
2019-02-16T01:06:35.866Z,76.54
2019-02-16T01:07:35.825Z,76.73
2019-02-16T01:08:35.829Z,76.82
2019-02-16T01:09:35.728Z,77.30
2019-02-16T01:10:35.688Z,76.82
2019-02-16T01:11:35.652Z,76.92
2019-02-16T01:12:35.601Z,77.97
2019-02-16T01:13:35.600Z,77.97
2019-02-16T01:14:35.522Z,77.68
2019-02-16T01:15:35.471Z,77.39
2019-02-16T01:16:35.435Z,77.15
2019-02-16T01:17:35.392Z,76.48
2019-02-16T01:18:35.383Z,76.86
2019-02-16T01:19:35.326Z,76.96
2019-02-16T01:20:35.281Z,77.49
2019-02-16T01:21:35.214Z,77.68
2019-02-16T01:22:35.169Z,77.11
2019-02-16T01:23:35.123Z,77.49
2019-02-16T01:24:35.126Z,77.39
2019-02-16T01:25:35.081Z,77.49
2019-02-16T01:26:35.012Z,77.11
2019-02-16T01:27:34.957Z,76.82
2019-02-16T01:28:34.912Z,77.39
2019-02-16T01:29:34.871Z,77.49
2019-02-16T01:30:34.869Z,77.39
2019-02-16T01:31:34.800Z,77.77
2019-02-16T01:32:34.760Z,77.87
2019-02-16T01:33:34.700Z,78.63
2019-02-16T01:34:34.663Z,78.44
2019-02-16T01:35:34.623Z,78.91
2019-02-16T01:36:34.605Z,78.72
2019-02-16T01:37:34.544Z,79.39
2019-02-16T01:38:34.497Z,79.11
2019-02-16T01:39:34.445Z,79.11
2019-02-16T01:40:34.420Z,79.83
2019-02-16T01:41:34.359Z,79.86
2019-02-16T01:42:34.302Z,79.86
2019-02-16T01:43:34.276Z,78.91
2019-02-16T01:44:34.250Z,79.49
2019-02-16T01:45:34.213Z,79.58
2019-02-16T01:46:34.128Z,78.91
2019-02-16T01:47:34.083Z,79.30
2019-02-16T01:48:34.060Z,79.20
2019-02-16T01:49:34.015Z,79.11
2019-02-16T01:50:33.971Z,79.49
2019-02-16T01:51:33.946Z,79.83
2019-02-16T01:52:33.875Z,80.58
2019-02-16T01:53:33.833Z,80.40
2019-02-16T01:54:33.793Z,80.77
2019-02-16T01:55:33.783Z,81.25
2019-02-16T01:56:33.714Z,81.63
2019-02-16T01:57:33.677Z,81.73
2019-02-16T01:58:33.646Z,82.10
2019-02-16T01:59:33.564Z,82.20
2019-02-16T02:00:33.546Z,82.49
2019-02-16T02:01:33.515Z,82.82
2019-02-16T02:02:33.447Z,83.30
2019-02-16T02:03:33.425Z,83.68
2019-02-16T02:04:33.404Z,84.34
2019-02-16T02:05:33.334Z,84.63
2019-02-16T02:06:33.301Z,84.82
2019-02-16T02:07:33.225Z,85.30
2019-02-16T02:08:33.197Z,85.39
2019-02-16T02:09:33.144Z,85.20
2019-02-16T02:10:33.101Z,85.30
2019-02-16T02:11:33.067Z,85.91
2019-02-16T02:12:33.031Z,85.63
2019-02-16T02:13:32.962Z,86.43
2019-02-16T02:14:32.926Z,86.24
2019-02-16T02:15:32.910Z,85.96
2019-02-16T02:16:32.833Z,85.96
2019-02-16T02:17:32.813Z,85.01
2019-02-16T02:18:32.744Z,85.01
2019-02-16T02:19:32.705Z,85.01
2019-02-16T02:20:32.659Z,84.82
2019-02-16T02:21:40.666Z,85.11
2019-02-16T02:22:32.618Z,85.20
2019-02-16T02:23:32.541Z,85.39
2019-02-16T02:24:32.482Z,85.39
2019-02-16T02:25:32.437Z,85.49
2019-02-16T02:26:32.399Z,84.82
2019-02-16T02:27:32.354Z,84.63
2019-02-16T02:28:32.333Z,83.97
2019-02-16T02:29:32.259Z,83.72
2019-02-16T02:30:32.240Z,82.96
2019-02-16T02:31:32.182Z,82.96
2019-02-16T02:32:32.140Z,83.59
2019-02-16T02:33:32.110Z,83.30
2019-02-16T02:34:32.068Z,83.39
2019-02-16T02:35:32.008Z,83.39
2019-02-16T02:36:31.954Z,83.59
2019-02-16T02:37:31.910Z,83.87
2019-02-16T02:38:31.899Z,84.16
2019-02-16T02:39:31.825Z,84.72
2019-02-16T02:40:31.782Z,84.34
2019-02-16T02:41:31.755Z,84.91
2019-02-16T02:42:31.703Z,85.01
2019-02-16T02:43:31.649Z,84.82
2019-02-16T02:44:31.628Z,85.49
2019-02-16T02:45:31.584Z,84.91
2019-02-16T02:46:31.513Z,85.01
2019-02-16T02:47:31.488Z,85.49
2019-02-16T02:48:31.439Z,84.72
2019-02-16T02:49:31.407Z,84.53
2019-02-16T02:50:31.356Z,84.16
2019-02-16T02:51:31.305Z,84.82
2019-02-16T02:52:31.564Z,84.63
2019-02-16T02:53:31.897Z,85.11
2019-02-16T02:54:31.193Z,85.77
2019-02-16T02:55:31.131Z,85.68
2019-02-16T02:56:31.067Z,85.30
2019-02-16T02:57:31.045Z,85.49
2019-02-16T02:58:30.982Z,84.91
2019-02-16T02:59:30.942Z,84.82
2019-02-16T03:00:30.929Z,84.63
2019-02-16T03:01:30.861Z,85.01
2019-02-16T03:02:30.835Z,85.20
2019-02-16T03:03:30.771Z,84.82
2019-02-16T03:04:30.727Z,85.39
2019-02-16T03:05:30.703Z,85.49
2019-02-16T03:06:30.633Z,85.58
2019-02-16T03:07:30.605Z,85.58
2019-02-16T03:08:30.536Z,85.11
2019-02-16T03:09:30.488Z,85.01
2019-02-16T03:10:30.473Z,84.91
2019-02-16T03:11:30.414Z,85.01
2019-02-16T03:12:30.392Z,84.53
2019-02-16T03:13:30.333Z,85.01
2019-02-16T03:14:30.309Z,84.72
2019-02-16T03:15:30.251Z,84.82
2019-02-16T03:16:30.189Z,85.01
2019-02-16T03:17:30.185Z,85.11
2019-02-16T03:18:30.098Z,85.01
2019-02-16T03:19:30.064Z,85.30
2019-02-16T03:20:30.038Z,85.20
2019-02-16T03:21:29.981Z,86.05
2019-02-16T03:22:29.949Z,85.58
2019-02-16T03:23:29.897Z,84.44
2019-02-16T03:24:29.849Z,84.82
2019-02-16T03:25:29.795Z,84.25
2019-02-16T03:26:29.774Z,84.01
2019-02-16T03:27:29.704Z,83.44
2019-02-16T03:28:29.649Z,82.96
2019-02-16T03:29:29.610Z,83.06
2019-02-16T03:30:29.567Z,82.87
2019-02-16T03:31:29.576Z,83.06
2019-02-16T03:32:29.493Z,82.68
2019-02-16T03:33:29.473Z,82.29
2019-02-16T03:34:29.404Z,82.68
2019-02-16T03:35:29.357Z,82.77
2019-02-16T03:36:29.306Z,82.49
2019-02-16T03:37:29.278Z,82.39
2019-02-16T03:38:29.212Z,82.58
2019-02-16T03:39:29.233Z,82.10
2019-02-16T03:40:29.127Z,82.20
2019-02-16T03:41:29.080Z,82.10
2019-02-16T03:42:29.065Z,82.10
2019-02-16T03:43:29.002Z,82.39
2019-02-16T03:44:28.995Z,82.29
2019-02-16T03:45:28.917Z,81.54
2019-02-16T03:46:28.872Z,81.92
2019-02-16T03:47:28.817Z,81.63
2019-02-16T03:48:28.777Z,82.10
2019-02-16T03:49:28.768Z,82.01
2019-02-16T03:50:28.717Z,81.92
2019-02-16T03:51:28.649Z,82.39
2019-02-16T03:52:28.608Z,82.58
2019-02-16T03:53:28.587Z,82.68
2019-02-16T03:54:28.519Z,83.44
2019-02-16T03:55:28.465Z,83.06
2019-02-16T03:56:28.439Z,83.20
2019-02-16T03:57:28.381Z,83.39
2019-02-16T03:58:28.348Z,83.11
2019-02-16T03:59:28.309Z,83.39
2019-02-16T04:00:28.253Z,83.30
2019-02-16T04:01:28.201Z,83.11
2019-02-16T04:02:28.158Z,83.49
2019-02-16T04:03:28.128Z,83.01
2019-02-16T04:04:28.107Z,83.01
2019-02-16T04:05:28.054Z,83.44
2019-02-16T04:06:27.999Z,82.82
2019-02-16T04:07:27.941Z,83.49
2019-02-16T04:08:27.906Z,83.11
2019-02-16T04:09:27.880Z,83.25
2019-02-16T04:10:27.817Z,83.06
2019-02-16T04:11:27.779Z,82.68
2019-02-16T04:12:27.724Z,82.49
2019-02-16T04:13:27.668Z,82.39
2019-02-16T04:14:27.657Z,82.20
2019-02-16T04:15:27.607Z,82.20
2019-02-16T04:16:27.538Z,82.20
2019-02-16T04:17:27.525Z,82.39
2019-02-16T04:18:27.453Z,83.25
2019-02-16T04:19:27.402Z,83.01
2019-02-16T04:20:27.398Z,83.39
2019-02-16T04:21:27.314Z,83.49
2019-02-16T04:22:27.270Z,83.59
2019-02-16T04:23:27.257Z,84.34
2019-02-16T04:24:27.205Z,84.25
2019-02-16T04:25:27.176Z,84.82
2019-02-16T04:26:27.119Z,85.20
2019-02-16T04:27:27.056Z,85.68
2019-02-16T04:28:27.000Z,85.53
2019-02-16T04:29:26.995Z,84.91
2019-02-16T04:30:26.949Z,85.86
2019-02-16T04:31:26.880Z,85.44
2019-02-16T04:32:26.830Z,85.58
2019-02-16T04:33:26.783Z,85.49
2019-02-16T04:34:26.751Z,85.58
2019-02-16T04:35:26.719Z,85.30
2019-02-16T04:36:26.676Z,85.30
2019-02-16T04:37:26.625Z,85.49
2019-02-16T04:38:26.561Z,85.44
2019-02-16T04:39:26.521Z,86.11
2019-02-16T04:40:26.478Z,86.39
2019-02-16T04:41:26.488Z,87.43
2019-02-16T04:42:26.398Z,87.34
2019-02-16T04:43:26.341Z,87.82
2019-02-16T04:44:26.306Z,87.72
2019-02-16T04:45:26.263Z,88.57
2019-02-16T04:46:26.232Z,88.39
2019-02-16T04:47:26.176Z,88.57
2019-02-16T04:48:26.128Z,89.24
2019-02-16T04:49:26.088Z,89.29
2019-02-16T04:50:26.055Z,89.76
2019-02-16T04:51:26.018Z,90.14
2019-02-16T04:52:34.419Z,90.71
2019-02-16T04:53:25.891Z,90.62
2019-02-16T04:54:25.871Z,90.62
2019-02-16T04:55:25.824Z,90.43
2019-02-16T04:56:25.767Z,91.00
2019-02-16T04:57:25.742Z,91.38
2019-02-16T04:58:25.702Z,91.19
2019-02-16T04:59:25.651Z,91.28
2019-02-16T05:00:25.584Z,92.04
2019-02-16T05:01:25.556Z,92.76
2019-02-16T05:02:25.495Z,93.89
2019-02-16T05:03:25.467Z,93.80
2019-02-16T05:04:25.434Z,94.27
2019-02-16T05:05:25.361Z,93.70
2019-02-16T05:06:25.332Z,93.65
2019-02-16T05:07:25.302Z,93.08
2019-02-16T05:08:25.241Z,91.94
2019-02-16T05:09:25.231Z,91.66
2019-02-16T05:10:25.148Z,91.28
2019-02-16T05:11:25.109Z,91.00
2019-02-16T05:12:25.066Z,91.09
2019-02-16T05:13:25.029Z,92.33
2019-02-16T05:14:25.000Z,91.94
2019-02-16T05:15:24.922Z,91.94
2019-02-16T05:16:24.899Z,92.33
2019-02-16T05:17:24.836Z,91.66
2019-02-16T05:18:24.813Z,93.08
2019-02-16T05:19:24.747Z,92.33
2019-02-16T05:20:24.724Z,92.14
2019-02-16T05:21:24.671Z,92.04
2019-02-16T05:22:24.603Z,91.19
2019-02-16T05:23:24.594Z,90.62
2019-02-16T05:24:24.539Z,90.71
2019-02-16T05:25:24.463Z,90.05
2019-02-16T05:26:24.425Z,90.33
2019-02-16T05:27:24.393Z,89.86
2019-02-16T05:28:24.350Z,90.05
2019-02-16T05:29:24.335Z,89.95
2019-02-16T05:30:24.254Z,89.67
2019-02-16T05:31:24.236Z,89.86
2019-02-16T05:32:24.173Z,89.39
2019-02-16T05:33:24.161Z,89.86
2019-02-16T05:34:24.072Z,89.67
2019-02-16T05:35:24.029Z,89.05
2019-02-16T05:36:24.011Z,88.76
2019-02-16T05:37:23.932Z,88.48
2019-02-16T05:38:23.909Z,87.72
2019-02-16T05:39:23.862Z,87.91
2019-02-16T05:40:23.806Z,87.53
2019-02-16T05:41:23.812Z,88.10
2019-02-16T05:42:23.722Z,88.76
2019-02-16T05:43:23.670Z,88.76
2019-02-16T05:44:23.621Z,88.53
2019-02-16T05:45:23.603Z,89.29
2019-02-16T05:46:24.699Z,89.76
2019-02-16T05:47:23.479Z,89.95
2019-02-16T05:48:23.454Z,90.43
2019-02-16T05:49:23.399Z,91.09
2019-02-16T05:50:23.373Z,91.99
2019-02-16T05:51:23.318Z,92.85
2019-02-16T05:52:23.303Z,94.08
2019-02-16T05:53:23.236Z,94.60
2019-02-16T05:54:23.202Z,95.26
2019-02-16T05:55:23.144Z,96.03
2019-02-16T05:56:23.094Z,96.69
2019-02-16T05:57:23.054Z,97.16
2019-02-16T05:58:23.046Z,97.45
2019-02-16T05:59:22.960Z,97.64
2019-02-16T06:00:22.923Z,98.02
2019-02-16T06:01:22.869Z,98.39
2019-02-16T06:02:22.843Z,98.11
2019-02-16T06:03:22.794Z,98.87
2019-02-16T06:04:22.775Z,99.06
2019-02-16T06:05:22.700Z,99.25
2019-02-16T06:06:22.682Z,99.77
2019-02-16T06:07:22.592Z,99.99
2019-02-16T06:08:22.556Z,99.99
2019-02-16T06:09:22.504Z,99.99
2019-02-16T06:10:22.492Z,99.99
2019-02-16T06:11:22.420Z,99.99
2019-02-16T06:12:22.405Z,99.99
2019-02-16T06:13:22.324Z,99.99
2019-02-16T06:14:22.294Z,99.99
2019-02-16T06:15:22.238Z,99.99
2019-02-16T06:16:22.198Z,99.99
2019-02-16T06:17:22.151Z,99.99
2019-02-16T06:18:22.124Z,99.99
2019-02-16T06:19:22.055Z,99.99
2019-02-16T06:20:22.019Z,99.99
2019-02-16T06:21:21.969Z,99.99
2019-02-16T06:22:21.937Z,99.99
2019-02-16T06:23:21.881Z,99.99
2019-02-16T06:24:21.850Z,99.99
2019-02-16T06:25:21.785Z,99.99
2019-02-16T06:26:21.735Z,99.99
2019-02-16T06:27:21.707Z,99.99
2019-02-16T06:28:21.649Z,99.99
2019-02-16T06:29:21.591Z,99.99
2019-02-16T06:30:21.566Z,99.99
2019-02-16T06:31:21.540Z,99.99
2019-02-16T06:32:21.474Z,99.99
2019-02-16T06:33:21.413Z,99.99
2019-02-16T06:34:21.361Z,99.99
2019-02-16T06:35:21.337Z,99.99
2019-02-16T06:36:21.290Z,99.99
2019-02-16T06:37:21.277Z,99.99
2019-02-16T06:38:21.211Z,99.99
2019-02-16T06:39:21.133Z,99.99
2019-02-16T06:40:21.099Z,99.99
2019-02-16T06:41:21.047Z,99.99
2019-02-16T06:42:21.028Z,99.99
2019-02-16T06:43:20.988Z,99.99
2019-02-16T06:44:20.933Z,99.99
2019-02-16T06:45:20.883Z,99.99
2019-02-16T06:46:20.853Z,99.99
2019-02-16T06:47:20.797Z,99.99
2019-02-16T06:48:20.751Z,99.99
2019-02-16T06:49:20.702Z,99.99
2019-02-16T06:50:20.645Z,99.99
2019-02-16T06:51:20.592Z,99.99
2019-02-16T06:52:20.539Z,99.99
2019-02-16T06:53:20.546Z,99.99
2019-02-16T06:54:20.455Z,99.99
2019-02-16T06:55:20.415Z,99.99
2019-02-16T06:56:20.387Z,99.99
2019-02-16T06:57:20.347Z,99.99
2019-02-16T06:58:20.264Z,99.99
2019-02-16T06:59:20.256Z,99.99
2019-02-16T07:00:20.195Z,99.99
2019-02-16T07:01:20.153Z,99.99
2019-02-16T07:02:20.079Z,99.99
2019-02-16T07:03:20.071Z,99.99
2019-02-16T07:04:20.007Z,99.99
2019-02-16T07:05:19.992Z,99.99
2019-02-16T07:06:19.896Z,99.99
2019-02-16T07:07:19.876Z,99.99
2019-02-16T07:08:19.808Z,99.99
2019-02-16T07:09:19.781Z,99.99
2019-02-16T07:10:19.750Z,99.99
2019-02-16T07:11:19.682Z,99.99
2019-02-16T07:12:19.616Z,99.99
2019-02-16T07:13:19.590Z,99.99
2019-02-16T07:14:19.531Z,99.99
2019-02-16T07:15:19.489Z,99.99
2019-02-16T07:16:19.487Z,99.99
2019-02-16T07:17:19.411Z,99.99
2019-02-16T07:18:19.367Z,99.99
2019-02-16T07:19:19.296Z,99.99
2019-02-16T07:20:19.253Z,99.99
2019-02-16T07:21:19.213Z,99.99
2019-02-16T07:22:19.190Z,99.99
2019-02-16T07:23:22.494Z,99.99
2019-02-16T07:24:19.077Z,99.99
2019-02-16T07:25:19.034Z,99.99
2019-02-16T07:26:19.007Z,99.99
2019-02-16T07:27:18.938Z,99.99
2019-02-16T07:28:18.925Z,99.99
2019-02-16T07:29:18.971Z,98.59
2019-02-16T07:30:18.808Z,94.93
2019-02-16T07:31:18.794Z,93.32
2019-02-16T07:32:18.725Z,91.28
2019-02-16T07:33:18.717Z,89.61
2019-02-16T07:34:18.670Z,87.28
2019-02-16T07:35:18.581Z,85.00
2019-02-16T07:36:18.547Z,82.57
2019-02-16T07:37:18.477Z,81.37
2019-02-16T07:38:18.438Z,80.33
2019-02-16T07:39:18.456Z,79.19
2019-02-16T07:40:18.362Z,78.90
2019-02-16T07:41:18.327Z,78.61
2019-02-16T07:42:18.294Z,78.61
2019-02-16T07:43:18.397Z,77.61
2019-02-16T07:44:18.199Z,76.46
2019-02-16T07:45:18.185Z,75.16
2019-02-16T07:46:18.166Z,74.88
2019-02-16T07:47:18.098Z,74.63
2019-02-16T07:48:18.015Z,73.21
2019-02-16T07:49:17.976Z,73.74
2019-02-16T07:50:17.932Z,73.68
2019-02-16T07:51:17.891Z,73.58
2019-02-16T07:52:17.919Z,73.87
2019-02-16T07:53:17.849Z,73.77
2019-02-16T07:54:17.773Z,73.21
2019-02-16T07:55:17.736Z,73.14
2019-02-16T07:56:17.821Z,73.11
2019-02-16T07:57:17.723Z,73.33
2019-02-16T07:58:17.707Z,72.19
2019-02-16T07:59:17.569Z,72.19
2019-02-16T08:00:17.561Z,72.09
2019-02-16T08:01:17.505Z,72.38
2019-02-16T08:02:17.474Z,72.86
2019-02-16T08:03:17.412Z,72.00
2019-02-16T08:04:17.385Z,72.19
2019-02-16T08:05:17.346Z,71.75
2019-02-16T08:06:17.311Z,71.94
2019-02-16T08:07:17.258Z,71.56
2019-02-16T08:08:17.244Z,71.81
2019-02-16T08:09:17.191Z,71.43
2019-02-16T08:10:17.142Z,71.52
2019-02-16T08:11:17.119Z,71.30
2019-02-16T08:12:17.063Z,73.01
2019-02-16T08:13:17.043Z,72.86
2019-02-16T08:14:17.046Z,73.33
2019-02-16T08:15:16.961Z,72.38
2019-02-16T08:16:16.929Z,71.37
2019-02-16T08:17:16.871Z,69.84
2019-02-16T08:18:16.852Z,70.03
2019-02-16T08:19:16.951Z,70.13
2019-02-16T08:20:16.785Z,71.02
2019-02-16T08:21:16.731Z,69.78
2019-02-16T08:22:16.719Z,67.97
2019-02-16T08:23:16.654Z,67.01
2019-02-16T08:24:16.637Z,67.71
2019-02-16T08:25:16.589Z,66.95
2019-02-16T08:26:16.550Z,66.03
2019-02-16T08:27:16.520Z,65.04
2019-02-16T08:28:16.484Z,64.47
2019-02-16T08:29:16.446Z,64.65
2019-02-16T08:30:16.381Z,64.56
2019-02-16T08:31:16.363Z,64.56
2019-02-16T08:32:16.326Z,64.85
2019-02-16T08:33:16.273Z,64.28
2019-02-16T08:34:16.239Z,63.45
2019-02-16T08:35:16.197Z,62.68
2019-02-16T08:36:16.182Z,62.30
2019-02-16T08:37:16.135Z,62.33
2019-02-16T08:38:16.100Z,61.85
2019-02-16T08:39:16.061Z,60.93
2019-02-16T08:40:16.038Z,60.52
2019-02-16T08:41:15.963Z,60.20
2019-02-16T08:42:15.975Z,61.92
2019-02-16T08:43:15.900Z,61.76
2019-02-16T08:44:15.883Z,60.93
2019-02-16T08:45:15.839Z,60.45
2019-02-16T08:46:15.804Z,59.97
2019-02-16T08:47:15.778Z,60.10
2019-02-16T08:48:15.705Z,60.99
2019-02-16T08:49:15.704Z,61.09
2019-02-16T08:50:15.650Z,60.58
2019-02-16T08:51:15.618Z,60.99
2019-02-16T08:52:15.568Z,60.52
2019-02-16T08:53:15.555Z,60.33
2019-02-16T08:54:15.548Z,60.16
2019-02-16T08:55:15.485Z,59.88
2019-02-16T08:56:15.421Z,59.52
2019-02-16T08:57:15.398Z,58.86
2019-02-16T08:58:15.377Z,58.32
2019-02-16T08:59:15.328Z,60.33
2019-02-16T09:00:15.297Z,60.10
2019-02-16T09:01:15.223Z,60.87
2019-02-16T09:02:15.193Z,61.54
2019-02-16T09:03:15.159Z,61.66
2019-02-16T09:04:15.140Z,60.99
2019-02-16T09:05:15.089Z,60.33
2019-02-16T09:06:15.074Z,60.16
2019-02-16T09:07:15.011Z,59.78
2019-02-16T09:08:14.992Z,59.05
2019-02-16T09:09:14.935Z,58.56
2019-02-16T09:10:14.905Z,58.37
2019-02-16T09:11:14.874Z,57.92
2019-02-16T09:12:14.830Z,57.45
2019-02-16T09:13:14.820Z,57.35
2019-02-16T09:14:14.757Z,56.46
2019-02-16T09:15:14.733Z,57.23
2019-02-16T09:16:14.686Z,58.25
2019-02-16T09:17:14.654Z,58.63
2019-02-16T09:18:14.655Z,59.88
2019-02-16T09:19:14.569Z,59.30
2019-02-16T09:20:14.552Z,58.92
2019-02-16T09:21:15.190Z,59.69
2019-02-16T09:22:14.499Z,59.72
2019-02-16T09:23:14.475Z,58.09
2019-02-16T09:24:14.428Z,58.18
2019-02-16T09:25:14.384Z,58.79
2019-02-16T09:26:14.339Z,57.45
2019-02-16T09:27:14.298Z,56.30
2019-02-16T09:28:14.277Z,56.56
2019-02-16T09:29:14.276Z,57.35
2019-02-16T09:30:14.207Z,57.35
2019-02-16T09:31:14.191Z,57.26
2019-02-16T09:32:14.136Z,57.19
2019-02-16T09:33:14.117Z,56.39
2019-02-16T09:34:14.058Z,56.49
2019-02-16T09:35:14.015Z,56.68
2019-02-16T09:36:14.036Z,56.20
2019-02-16T09:37:13.970Z,56.20
2019-02-16T09:38:13.928Z,56.59
2019-02-16T09:39:13.901Z,56.94
2019-02-16T09:40:13.873Z,57.80
2019-02-16T09:41:13.826Z,57.73
2019-02-16T09:42:13.781Z,57.48
2019-02-16T09:43:13.778Z,56.32
2019-02-16T09:44:13.747Z,55.27
2019-02-16T09:45:13.675Z,55.30
2019-02-16T09:46:13.644Z,55.11
2019-02-16T09:47:13.655Z,53.55
2019-02-16T09:48:13.590Z,54.70
2019-02-16T09:49:13.540Z,55.21
2019-02-16T09:50:13.521Z,55.21
2019-02-16T09:51:13.473Z,55.11
2019-02-16T09:52:13.452Z,55.58
2019-02-16T09:53:13.446Z,56.26
2019-02-16T09:54:13.397Z,55.11
2019-02-16T09:55:13.360Z,54.94
2019-02-16T09:56:13.322Z,54.17
2019-02-16T09:57:13.331Z,53.77
2019-02-16T09:58:13.465Z,54.24
2019-02-16T09:59:13.347Z,53.77
2019-02-16T10:00:13.997Z,54.34
2019-02-16T10:01:13.142Z,54.17
2019-02-16T10:02:13.182Z,53.67
2019-02-16T10:03:13.136Z,54.08
2019-02-16T10:04:13.097Z,53.28
2019-02-16T10:05:13.032Z,53.50
2019-02-16T10:06:13.022Z,54.08
2019-02-16T10:07:12.967Z,53.50
2019-02-16T10:08:12.955Z,53.38
2019-02-16T10:09:12.894Z,54.05
2019-02-16T10:10:12.869Z,54.08
2019-02-16T10:11:12.845Z,53.48
2019-02-16T10:12:12.841Z,53.38
2019-02-16T10:13:12.785Z,53.99
2019-02-16T10:14:12.820Z,54.01
2019-02-16T10:15:12.742Z,53.50
2019-02-16T10:16:12.683Z,53.67
2019-02-16T10:17:12.641Z,53.58
2019-02-16T10:18:12.602Z,54.34
2019-02-16T10:19:12.559Z,54.15
2019-02-16T10:20:12.535Z,54.27
2019-02-16T10:21:12.510Z,53.55
2019-02-16T10:22:12.470Z,54.12
2019-02-16T10:23:12.424Z,54.91
2019-02-16T10:24:17.939Z,53.83
2019-02-16T10:25:12.554Z,54.15
2019-02-16T10:26:12.379Z,54.08
2019-02-16T10:27:12.293Z,53.99
2019-02-16T10:28:12.285Z,53.41
2019-02-16T10:29:12.241Z,53.60
2019-02-16T10:30:12.181Z,53.44
2019-02-16T10:31:12.170Z,53.24
2019-02-16T10:32:12.162Z,53.31
2019-02-16T10:33:12.086Z,53.34
2019-02-16T10:34:12.055Z,53.41
2019-02-16T10:35:12.032Z,53.12
2019-02-16T10:36:12.011Z,53.31
2019-02-16T10:37:11.973Z,53.15
2019-02-16T10:38:11.914Z,53.72
2019-02-16T10:39:11.900Z,53.41
2019-02-16T10:40:11.860Z,53.96
2019-02-16T10:41:11.833Z,54.05
2019-02-16T10:42:11.811Z,54.12
2019-02-16T10:43:11.758Z,55.18
2019-02-16T10:44:11.728Z,55.56
2019-02-16T10:45:11.690Z,55.46
2019-02-16T10:46:11.702Z,55.56
2019-02-16T10:47:11.640Z,55.01
2019-02-16T10:48:11.568Z,53.89
2019-02-16T10:49:11.551Z,54.08
2019-02-16T10:50:11.523Z,53.99
2019-02-16T10:51:11.521Z,53.60
2019-02-16T10:52:11.462Z,53.53
2019-02-16T10:53:11.440Z,53.67
2019-02-16T10:54:11.453Z,53.89
2019-02-16T10:55:11.360Z,53.34
2019-02-16T10:56:11.354Z,53.19
2019-02-16T10:57:11.297Z,53.77
2019-02-16T10:58:11.306Z,53.86
2019-02-16T10:59:11.213Z,55.23
2019-02-16T11:00:11.204Z,53.63
2019-02-16T11:01:11.166Z,53.22
2019-02-16T11:02:11.150Z,54.17
2019-02-16T11:03:11.144Z,53.53
2019-02-16T11:04:11.060Z,53.24
2019-02-16T11:05:11.037Z,52.28
2019-02-16T11:06:10.998Z,51.93
2019-02-16T11:07:10.960Z,50.99
2019-02-16T11:08:10.919Z,49.93
2019-02-16T11:09:10.926Z,50.61
2019-02-16T11:10:10.851Z,50.82
2019-02-16T11:11:10.825Z,49.74
2019-02-16T11:12:10.804Z,49.93
2019-02-16T11:13:10.762Z,50.01
2019-02-16T11:14:10.734Z,50.94
2019-02-16T11:15:10.763Z,52.36
2019-02-16T11:16:10.663Z,53.34
2019-02-16T11:17:10.617Z,52.48
2019-02-16T11:18:10.622Z,51.45
2019-02-16T11:19:10.564Z,51.23
2019-02-16T11:20:10.555Z,51.81
2019-02-16T11:21:10.494Z,52.48
2019-02-16T11:22:10.480Z,52.28
2019-02-16T11:23:10.425Z,52.38
2019-02-16T11:24:10.390Z,52.57
2019-02-16T11:25:10.353Z,52.38
2019-02-16T11:26:10.359Z,52.09
2019-02-16T11:27:10.298Z,52.40
2019-02-16T11:28:10.303Z,52.53
2019-02-16T11:29:11.147Z,51.35
2019-02-16T11:30:10.198Z,51.45
2019-02-16T11:31:10.153Z,51.35
2019-02-16T11:32:10.179Z,51.90
2019-02-16T11:33:10.133Z,52.76
2019-02-16T11:34:10.060Z,53.24
2019-02-16T11:35:10.417Z,53.44
2019-02-16T11:36:09.997Z,53.72
2019-02-16T11:37:09.984Z,52.28
2019-02-16T11:38:09.942Z,53.24
2019-02-16T11:39:09.924Z,52.48
2019-02-16T11:40:09.868Z,53.72
2019-02-16T11:41:16.890Z,53.34
2019-02-16T11:42:09.818Z,52.28
2019-02-16T11:43:09.772Z,53.24
2019-02-16T11:44:09.771Z,53.15
2019-02-16T11:45:09.709Z,53.63
2019-02-16T11:46:09.668Z,53.82
2019-02-16T11:47:09.670Z,53.27
2019-02-16T11:48:09.629Z,52.50
2019-02-16T11:49:09.609Z,52.02
2019-02-16T11:50:09.549Z,52.86
2019-02-16T11:51:09.495Z,53.56
2019-02-16T11:52:09.468Z,52.79
2019-02-16T11:53:09.464Z,53.17
2019-02-16T11:54:09.439Z,53.56
2019-02-16T11:55:09.373Z,53.34
2019-02-16T11:56:09.343Z,54.11
2019-02-16T11:57:09.317Z,53.91
2019-02-16T11:58:09.287Z,53.72
2019-02-16T11:59:09.253Z,53.63
2019-02-16T12:00:09.246Z,53.24
2019-02-16T12:01:09.214Z,53.24
2019-02-16T12:02:09.165Z,53.91
2019-02-16T12:03:09.117Z,53.63
2019-02-16T12:04:09.088Z,53.82
2019-02-16T12:05:09.090Z,53.91
2019-02-16T12:06:09.035Z,53.56
2019-02-16T12:07:08.987Z,53.17
2019-02-16T12:08:08.975Z,53.94
2019-02-16T12:09:08.944Z,52.50
2019-02-16T12:10:08.898Z,52.31
2019-02-16T12:11:08.901Z,52.50
2019-02-16T12:12:08.865Z,52.95
2019-02-16T12:13:08.789Z,53.70
2019-02-16T12:14:08.764Z,54.39
2019-02-16T12:15:08.742Z,54.21
2019-02-16T12:16:08.683Z,54.17
2019-02-16T12:17:08.679Z,55.23
2019-02-16T12:18:08.619Z,55.80
2019-02-16T12:19:08.603Z,54.75
2019-02-16T12:20:08.571Z,54.94
2019-02-16T12:21:08.570Z,54.75
2019-02-16T12:22:08.524Z,54.78
2019-02-16T12:23:08.487Z,54.30
2019-02-16T12:24:08.435Z,53.53
2019-02-16T12:25:08.393Z,54.39
2019-02-16T12:26:08.423Z,54.37
2019-02-16T12:27:08.344Z,55.33
2019-02-16T12:28:08.304Z,55.13
2019-02-16T12:29:08.264Z,55.42
2019-02-16T12:30:08.226Z,55.71
2019-02-16T12:31:08.220Z,56.19
2019-02-16T12:32:08.187Z,55.71
2019-02-16T12:33:08.131Z,55.42
2019-02-16T12:34:08.140Z,55.23
2019-02-16T12:35:08.076Z,55.33
2019-02-16T12:36:08.029Z,55.42
2019-02-16T12:37:07.986Z,55.04
2019-02-16T12:38:07.964Z,55.40
2019-02-16T12:39:07.964Z,56.09
2019-02-16T12:40:07.901Z,56.38
2019-02-16T12:41:07.898Z,55.71
2019-02-16T12:42:07.823Z,55.71
2019-02-16T12:43:07.795Z,55.71
2019-02-16T12:44:07.787Z,55.80
2019-02-16T12:45:07.754Z,55.33
2019-02-16T12:46:07.721Z,55.21
2019-02-16T12:47:07.697Z,55.21
2019-02-16T12:48:07.619Z,56.16
2019-02-16T12:49:07.608Z,56.45
2019-02-16T12:50:07.570Z,56.74
2019-02-16T12:51:07.560Z,57.48
2019-02-16T12:52:07.501Z,57.28